Time;durP1;ratioP1;P1;durP2;ratioP2;P2;SDS_P1;SDS_P2;PMS_P1;PMS_P2;Temp;Humidity;BMP_temperature;BMP_pressure;BME280_temperature;BME280_humidity;BME280_pressure;Samples;Min_cycle;Max_cycle;Signal;HPM_P1;HPM_P2
2022/08/29 00:00:37;;;;;;;1999.90;999.90;;;16.40;70.30;;;;;;5153766;27;20045;-72
2022/08/29 00:03:05;;;;;;;1999.90;999.90;;;16.50;82.40;;;;;;5153295;27;20087;-72
2022/08/29 00:05:34;;;;;;;1999.90;999.90;;;16.40;77.30;;;;;;5153979;27;20102;-72
2022/08/29 00:08:00;;;;;;;1999.90;999.90;;;16.40;74.90;;;;;;5135583;27;20047;-72
2022/08/29 00:10:28;;;;;;;1999.90;999.90;;;16.40;71.50;;;;;;5154175;27;20550;-74
2022/08/29 00:12:54;;;;;;;1999.90;999.90;;;16.40;69.70;;;;;;5153343;27;20276;-72
2022/08/29 00:15:21;;;;;;;1999.90;999.90;;;16.40;71.70;;;;;;5153086;27;20035;-72
2022/08/29 00:17:47;;;;;;;1999.90;999.90;;;16.40;71.00;;;;;;5135511;27;20072;-72
2022/08/29 00:20:18;;;;;;;1999.90;999.90;;;16.30;72.70;;;;;;5153363;27;20079;-73
2022/08/29 00:22:43;;;;;;;1999.90;999.90;;;16.30;73.40;;;;;;5154230;27;20043;-72
2022/08/29 00:25:10;;;;;;;1999.90;999.90;;;16.30;73.10;;;;;;5153436;27;20382;-72
2022/08/29 00:27:36;;;;;;;1999.90;999.90;;;16.20;71.50;;;;;;5152922;27;20381;-71
2022/08/29 00:30:04;;;;;;;1999.90;999.90;;;16.20;72.00;;;;;;5153210;27;20355;-72
2022/08/29 00:32:33;;;;;;;1999.90;999.90;;;16.20;72.70;;;;;;5153542;27;20027;-72
2022/08/29 00:35:01;;;;;;;1999.90;999.90;;;16.20;72.90;;;;;;5153038;27;20482;-72
2022/08/29 00:37:27;;;;;;;1999.90;999.90;;;16.20;74.40;;;;;;5153342;27;20038;-72
2022/08/29 00:39:53;;;;;;;1999.90;999.90;;;16.20;76.10;;;;;;5134835;27;20074;-78
2022/08/29 00:42:18;;;;;;;1999.90;999.90;;;16.20;78.70;;;;;;5134168;27;20509;-73
2022/08/29 00:44:45;;;;;;;1999.90;999.90;;;16.20;78.00;;;;;;5135531;27;20042;-73
2022/08/29 00:47:15;;;;;;;1999.90;999.90;;;16.20;78.10;;;;;;5151488;27;20391;-77
2022/08/29 00:49:44;;;;;;;1999.90;999.90;;;16.20;78.10;;;;;;5152714;27;20486;-80
2022/08/29 00:52:31;;;;;;;1999.90;999.90;;;16.20;75.30;;;;;;5153832;27;20434;-76
2022/08/29 00:54:58;;;;;;;1999.90;975.03;;;16.20;73.40;;;;;;5157158;27;20455;-74
2022/08/29 00:57:27;;;;;;;1999.90;999.90;;;16.20;72.90;;;;;;5139590;27;20081;-73
2022/08/29 00:59:53;;;;;;;1999.90;999.90;;;16.20;72.50;;;;;;5157765;27;20268;-74
2022/08/29 01:02:19;;;;;;;1999.90;999.90;;;16.20;74.10;;;;;;5139609;27;20039;-71
2022/08/29 01:04:45;;;;;;;1999.90;999.90;;;16.20;76.90;;;;;;5138838;27;20086;-71
2022/08/29 01:07:11;;;;;;;1999.90;999.90;;;16.20;78.40;;;;;;5155597;27;20078;-71
2022/08/29 01:09:40;;;;;;;1999.90;999.90;;;16.20;79.20;;;;;;5157199;27;20043;-72
2022/08/29 01:12:16;;;;;;;1999.90;999.90;;;16.20;79.50;;;;;;5156594;27;20382;-71
2022/08/29 01:14:54;;;;;;;1999.90;999.90;;;16.20;78.40;;;;;;5139206;27;20039;-71
2022/08/29 01:17:31;;;;;;;1999.90;999.90;;;16.10;78.10;;;;;;5138706;27;20140;-71
2022/08/29 01:20:02;;;;;;;1999.90;999.90;;;16.10;80.40;;;;;;5156856;27;20086;-77
2022/08/29 01:22:40;;;;;;;1999.90;999.90;;;16.10;82.10;;;;;;5158059;27;20118;-71
2022/08/29 01:25:11;;;;;;;1999.90;999.90;;;16.10;85.10;;;;;;5156528;27;20475;-71
2022/08/29 01:27:40;;;;;;;1999.90;999.90;;;16.10;86.60;;;;;;5156927;27;20046;-71
2022/08/29 01:30:08;;;;;;;1999.90;999.90;;;16.10;89.60;;;;;;5156223;27;20355;-72
2022/08/29 01:32:33;;;;;;;1999.90;999.90;;;16.10;90.20;;;;;;5137301;27;20076;-71
2022/08/29 01:34:59;;;;;;;1999.90;999.90;;;16.10;89.70;;;;;;5138085;27;20035;-72
2022/08/29 01:37:30;;;;;;;1999.90;999.90;;;16.10;91.20;;;;;;5157362;27;20038;-72
2022/08/29 01:39:55;;;;;;;1999.90;999.90;;;16.10;93.00;;;;;;5155535;27;20042;-71
2022/08/29 01:42:23;;;;;;;1999.90;999.90;;;16.10;94.20;;;;;;5156050;27;20043;-71
2022/08/29 01:44:55;;;;;;;1999.90;999.90;;;16.10;95.50;;;;;;5156578;27;20122;-72
2022/08/29 01:47:24;;;;;;;1999.90;999.90;;;16.10;96.40;;;;;;5155390;27;20053;-71
2022/08/29 01:49:50;;;;;;;1999.90;861.38;;;16.10;98.10;;;;;;5156983;27;20542;-71
2022/08/29 01:52:16;;;;;;;1999.90;999.90;;;16.10;99.90;;;;;;5156293;27;20130;-71
2022/08/29 01:54:43;;;;;;;1999.90;999.90;;;16.10;99.90;;;;;;5156173;27;20126;-75
2022/08/29 01:57:10;;;;;;;1999.90;999.90;;;16.10;99.90;;;;;;5155723;27;20031;-72
2022/08/29 01:59:37;;;;;;;1999.90;999.90;;;16.10;99.90;;;;;;5156312;27;20086;-72
2022/08/29 02:02:15;;;;;;;1999.90;872.47;;;16.10;99.90;;;;;;5137053;27;20091;-71
2022/08/29 02:04:42;;;;;;;1999.90;946.85;;;16.10;99.90;;;;;;5154320;27;20462;-72
2022/08/29 02:07:08;;;;;;;1999.90;964.90;;;16.10;99.90;;;;;;5155887;27;20039;-77
2022/08/29 02:09:34;;;;;;;1999.90;999.90;;;16.10;99.90;;;;;;5156136;27;20083;-71
2022/08/29 02:12:05;;;;;;;1999.90;999.90;;;16.10;99.90;;;;;;5155918;27;20042;-71
2022/08/29 02:14:32;;;;;;;1999.90;999.90;;;16.10;99.90;;;;;;5155954;27;20476;-71
2022/08/29 02:16:58;;;;;;;1999.90;999.90;;;16.10;99.90;;;;;;5155628;27;20065;-71
2022/08/29 02:19:23;;;;;;;1999.90;999.90;;;16.10;99.90;;;;;;5155560;27;20463;-74
2022/08/29 02:21:49;;;;;;;1999.90;999.90;;;16.00;99.90;;;;;;5137690;27;20146;-72
2022/08/29 02:24:16;;;;;;;1999.90;999.90;;;16.10;99.90;;;;;;5155471;27;20121;-71
2022/08/29 02:26:43;;;;;;;1999.90;999.90;;;16.10;99.90;;;;;;5155794;27;20410;-72
2022/08/29 02:29:10;;;;;;;1999.90;999.90;;;16.10;99.90;;;;;;5136198;27;20043;-72
2022/08/29 02:31:37;;;;;;;1999.90;993.42;;;16.10;99.90;;;;;;5154023;27;20039;-71
2022/08/29 02:34:03;;;;;;;1999.90;999.90;;;16.10;99.90;;;;;;5154085;27;20046;-71
2022/08/29 02:36:29;;;;;;;1999.90;999.90;;;16.10;99.90;;;;;;5154768;27;20042;-73
2022/08/29 02:38:54;;;;;;;1999.90;999.90;;;16.10;99.90;;;;;;5137222;27;20042;-71
2022/08/29 02:41:20;;;;;;;1999.90;999.08;;;16.10;99.90;;;;;;5153912;27;20043;-74
2022/08/29 02:43:46;;;;;;;1999.90;874.40;;;16.10;99.90;;;;;;5155937;27;20035;-71
2022/08/29 02:46:16;;;;;;;1999.90;999.90;;;16.10;99.90;;;;;;5154835;27;20045;-81
2022/08/29 02:48:43;;;;;;;1999.90;999.90;;;16.10;99.90;;;;;;5154803;27;20078;-72
2022/08/29 02:51:10;;;;;;;1999.90;965.63;;;16.00;99.90;;;;;;5154862;27;20095;-72
2022/08/29 02:53:36;;;;;;;1999.90;989.83;;;16.10;99.90;;;;;;5120301;27;20099;-73
2022/08/29 02:56:02;;;;;;;1999.90;999.90;;;16.10;99.90;;;;;;5154556;27;20035;-73
2022/08/29 02:58:27;;;;;;;1999.90;999.90;;;16.10;99.90;;;;;;5155493;27;20091;-74
2022/08/29 03:00:53;;;;;;;1999.90;999.90;;;16.10;99.90;;;;;;5155062;27;20046;-72
2022/08/29 03:03:20;;;;;;;1999.90;963.45;;;16.00;99.90;;;;;;5155070;27;20039;-72
2022/08/29 03:05:46;;;;;;;1999.90;746.45;;;16.10;99.90;;;;;;5155274;27;20125;-72
2022/08/29 03:08:12;;;;;;;1999.90;904.08;;;16.10;99.90;;;;;;5155405;27;20034;-73
2022/08/29 03:10:40;;;;;;;1999.90;982.50;;;16.00;99.90;;;;;;5155347;27;20043;-72
2022/08/29 03:13:07;;;;;;;1999.90;963.00;;;16.10;99.90;;;;;;5155176;27;20175;-72
2022/08/29 03:15:32;;;;;;;1999.90;987.70;;;16.10;99.90;;;;;;5136828;27;20042;-72
2022/08/29 03:17:58;;;;;;;1999.90;784.00;;;16.00;99.90;;;;;;5154674;27;20049;-76
2022/08/29 03:20:24;;;;;;;1999.90;938.58;;;16.10;99.90;;;;;;5136106;27;20042;-72
2022/08/29 03:22:52;;;;;;;1999.90;999.90;;;16.00;99.90;;;;;;5119165;27;20054;-74
2022/08/29 03:25:20;;;;;;;1999.90;999.90;;;16.00;99.90;;;;;;5153737;27;20520;-72
2022/08/29 03:27:46;;;;;;;1999.90;807.08;;;16.00;99.90;;;;;;5155169;27;20134;-74
2022/08/29 03:30:14;;;;;;;1999.90;885.92;;;16.00;99.90;;;;;;5154564;27;20164;-72
2022/08/29 03:32:39;;;;;;;1999.90;911.90;;;16.00;99.90;;;;;;5154347;27;20047;-72
2022/08/29 03:35:07;;;;;;;1999.90;978.55;;;16.00;99.90;;;;;;5154636;27;20352;-72
2022/08/29 03:37:34;;;;;;;1999.90;853.95;;;16.00;99.90;;;;;;5154532;27;20095;-80
2022/08/29 03:40:00;;;;;;;1999.90;980.03;;;16.00;99.90;;;;;;5154598;27;20191;-72
2022/08/29 03:42:25;;;;;;;1999.90;999.90;;;16.00;99.90;;;;;;5153927;27;20129;-72
2022/08/29 03:44:51;;;;;;;1999.90;967.65;;;16.10;99.90;;;;;;5154466;27;20035;-72
2022/08/29 03:47:17;;;;;;;1999.90;854.38;;;16.10;99.90;;;;;;5118463;27;20042;-72
2022/08/29 03:49:43;;;;;;;1999.90;995.70;;;16.10;99.90;;;;;;5154295;27;20078;-73
2022/08/29 03:52:08;;;;;;;1999.90;827.30;;;16.10;99.90;;;;;;5153949;27;20061;-72
2022/08/29 03:54:35;;;;;;;1999.90;928.72;;;16.10;99.90;;;;;;5154115;27;20471;-72
2022/08/29 03:57:04;;;;;;;1999.90;999.90;;;16.10;99.90;;;;;;5153867;27;20108;-72
2022/08/29 03:59:31;;;;;;;1999.90;995.38;;;16.10;99.90;;;;;;5153760;27;20043;-71
2022/08/29 04:01:57;;;;;;;1999.90;889.17;;;16.10;99.90;;;;;;5153970;27;20077;-72
2022/08/29 04:07:08;;;;;;;1999.90;995.72;;;16.10;99.90;;;;;;5153822;27;20053;-72
2022/08/29 04:09:36;;;;;;;1999.90;988.88;;;16.10;99.90;;;;;;5153275;27;20047;-73
2022/08/29 04:12:01;;;;;;;1999.90;822.67;;;16.10;99.90;;;;;;5134955;27;20051;-72
2022/08/29 04:14:28;;;;;;;1999.90;928.70;;;16.10;99.90;;;;;;5153751;27;20045;-72
2022/08/29 04:16:54;;;;;;;1999.90;999.85;;;16.10;99.90;;;;;;5153406;27;20038;-72
2022/08/29 04:19:20;;;;;;;1999.90;994.20;;;16.00;99.90;;;;;;5153084;27;20103;-72
2022/08/29 04:21:47;;;;;;;1999.90;999.90;;;16.00;99.90;;;;;;5153325;27;20047;-72
2022/08/29 04:24:14;;;;;;;1999.90;999.90;;;16.10;99.90;;;;;;5135649;27;20117;-72
2022/08/29 04:26:40;;;;;;;1999.90;999.60;;;16.10;99.90;;;;;;5152085;27;20471;-75
2022/08/29 04:29:10;;;;;;;1999.90;938.83;;;16.00;99.90;;;;;;5153795;27;20307;-72
2022/08/29 04:31:37;;;;;;;1999.90;993.42;;;16.00;99.90;;;;;;5153624;27;20330;-78
2022/08/29 04:34:05;;;;;;;1999.90;968.60;;;15.90;99.90;;;;;;5152387;27;20043;-72
2022/08/29 04:36:35;;;;;;;1999.90;999.90;;;15.80;99.90;;;;;;5151730;27;20612;-72
2022/08/29 04:39:02;;;;;;;1999.90;999.90;;;15.80;99.90;;;;;;5153636;27;20173;-72
2022/08/29 04:41:27;;;;;;;1999.90;996.17;;;15.80;99.90;;;;;;5133842;27;20186;-73
2022/08/29 04:43:53;;;;;;;1999.90;999.90;;;15.70;99.90;;;;;;5151339;27;20050;-72
2022/08/29 04:46:19;;;;;;;1999.90;995.33;;;15.60;99.90;;;;;;5152715;27;20046;-74
2022/08/29 04:48:45;;;;;;;1999.90;983.22;;;15.70;99.90;;;;;;5152473;27;20046;-74
2022/08/29 04:51:10;;;;;;;1999.90;982.28;;;15.50;99.90;;;;;;5152988;27;20047;-72
2022/08/29 04:53:36;;;;;;;1999.90;999.90;;;15.50;99.90;;;;;;5152116;27;20047;-72
2022/08/29 04:56:08;;;;;;;1999.90;999.90;;;15.50;99.90;;;;;;5152512;27;20436;-72
2022/08/29 04:58:36;;;;;;;1999.90;999.90;;;15.40;99.90;;;;;;5151147;27;20513;-73
2022/08/29 05:01:02;;;;;;;1999.90;999.90;;;15.40;99.90;;;;;;5151528;27;20502;-75
2022/08/29 05:03:29;;;;;;;1999.90;999.90;;;15.40;99.90;;;;;;5152033;27;20126;-72
2022/08/29 05:06:00;;;;;;;1999.90;999.90;;;15.40;99.90;;;;;;5151509;27;20042;-75
2022/08/29 05:08:27;;;;;;;1999.90;999.90;;;15.40;99.90;;;;;;5152410;27;20047;-72
2022/08/29 05:10:53;;;;;;;1999.90;999.90;;;15.40;99.90;;;;;;5133621;27;20055;-72
2022/08/29 05:13:21;;;;;;;1999.90;999.90;;;15.40;99.90;;;;;;5152723;27;20046;-72
2022/08/29 05:15:47;;;;;;;1999.90;999.90;;;15.40;99.90;;;;;;5135047;27;20047;-73
2022/08/29 05:18:13;;;;;;;1999.90;999.90;;;15.40;99.90;;;;;;5151901;27;20054;-72
2022/08/29 05:20:41;;;;;;;1999.90;999.90;;;15.40;99.90;;;;;;5133843;27;20049;-72
2022/08/29 05:23:08;;;;;;;1999.90;999.90;;;15.40;99.90;;;;;;5153029;27;20486;-73
2022/08/29 05:25:34;;;;;;;1999.90;999.90;;;15.40;99.90;;;;;;5132596;27;20348;-77
2022/08/29 05:28:00;;;;;;;1999.90;999.90;;;15.40;99.90;;;;;;5152235;27;20053;-72
2022/08/29 05:30:26;;;;;;;1999.90;999.90;;;15.40;99.90;;;;;;5152993;27;20042;-72
2022/08/29 05:32:53;;;;;;;1999.90;999.90;;;15.40;99.90;;;;;;5152603;27;20072;-73
2022/08/29 05:35:19;;;;;;;;;;;15.50;1.00;;;;;;5152084;27;20483;-72
2022/08/29 05:37:45;;;;;;;1999.90;999.90;;;15.50;1.00;;;;;;5151731;27;19919;-73
2022/08/29 05:40:12;;;;;;;1999.90;999.90;;;15.50;1.00;;;;;;5155850;27;20047;-72
2022/08/29 05:42:38;;;;;;;1999.90;999.90;;;15.60;1.00;;;;;;5155836;27;20066;-72
2022/08/29 05:45:04;;;;;;;1999.90;999.90;;;15.60;1.00;;;;;;5155865;27;20134;-75
2022/08/29 05:47:30;;;;;;;1999.90;999.90;;;15.60;1.00;;;;;;5154620;27;20042;-73
2022/08/29 05:49:56;;;;;;;1999.90;999.90;;;15.70;1.00;;;;;;5137614;27;20039;-76
2022/08/29 05:52:22;;;;;;;1999.90;999.90;;;15.70;1.00;;;;;;5156356;27;20042;-73
2022/08/29 05:54:48;;;;;;;1999.90;999.90;;;15.80;1.00;;;;;;5155349;27;20043;-72
2022/08/29 05:57:16;;;;;;;1999.90;999.90;;;15.90;1.00;;;;;;5120211;27;20133;-72
2022/08/29 05:59:41;;;;;;;1999.90;999.90;;;15.90;1.00;;;;;;5155217;27;20126;-81
2022/08/29 06:02:09;;;;;;;1999.90;999.90;;;16.10;1.00;;;;;;5137998;27;20497;-73
2022/08/29 06:04:35;;;;;;;1999.90;999.90;;;16.10;1.00;;;;;;5152314;27;20041;-73
2022/08/29 06:07:00;;;;;;;1999.90;999.90;;;16.20;1.00;;;;;;5155787;27;20046;-75
2022/08/29 06:09:27;;;;;;;1999.90;999.90;;;16.20;1.00;;;;;;5156510;27;20508;-73
2022/08/29 06:11:53;;;;;;;1999.90;999.90;;;16.30;1.00;;;;;;5155679;27;20418;-73
2022/08/29 06:14:19;;;;;;;1999.90;999.90;;;16.40;1.00;;;;;;5156198;27;20042;-73
2022/08/29 06:16:45;;;;;;;1999.90;999.90;;;16.50;1.00;;;;;;5156409;27;20336;-73
2022/08/29 06:19:11;;;;;;;1999.90;999.90;;;16.60;1.00;;;;;;5156951;27;20050;-72
2022/08/29 06:21:37;;;;;;;1999.90;999.90;;;16.70;1.00;;;;;;5155997;27;20058;-72
2022/08/29 06:24:03;;;;;;;1999.90;999.90;;;16.90;1.00;;;;;;5156760;27;20471;-73
2022/08/29 06:26:30;;;;;;;1999.90;999.90;;;17.10;99.90;;;;;;5155421;27;20059;-73
2022/08/29 06:28:56;;;;;;;1999.90;999.90;;;17.20;99.90;;;;;;5156833;27;20042;-72
2022/08/29 06:31:26;;;;;;;1999.90;999.90;;;17.40;99.90;;;;;;5156698;27;20095;-73
2022/08/29 06:33:54;;;;;;;1999.90;999.90;;;17.60;99.90;;;;;;5156769;27;20046;-73
2022/08/29 06:36:20;;;;;;;1999.90;999.90;;;17.70;99.90;;;;;;5154259;27;20475;-73
2022/08/29 06:38:46;;;;;;;1999.90;999.90;;;17.80;99.90;;;;;;5155385;27;20161;-74
2022/08/29 06:41:14;;;;;;;1999.90;999.90;;;17.90;99.90;;;;;;5155813;27;20070;-72
2022/08/29 06:43:42;;;;;;;1999.90;999.90;;;18.00;99.90;;;;;;5155771;27;20118;-72
2022/08/29 06:46:08;;;;;;;1999.90;999.90;;;18.00;99.90;;;;;;5137711;27;20127;-72
2022/08/29 06:48:34;;;;;;;1999.90;999.90;;;18.00;99.90;;;;;;5155640;27;20099;-72
2022/08/29 06:51:01;;;;;;;1999.90;999.90;;;18.20;99.90;;;;;;5154473;27;20065;-74
2022/08/29 06:53:27;;;;;;;1999.90;999.90;;;18.20;99.90;;;;;;5156338;27;20083;-72
2022/08/29 06:55:53;;;;;;;1999.90;999.90;;;18.30;99.90;;;;;;5155754;27;20066;-72
2022/08/29 06:58:19;;;;;;;1999.90;999.90;;;18.30;99.90;;;;;;5136982;27;20058;-72
2022/08/29 07:00:45;;;;;;;1999.90;999.90;;;18.40;99.90;;;;;;5155555;27;20649;-72
2022/08/29 07:03:11;;;;;;;1999.90;991.92;;;18.40;99.90;;;;;;5156157;27;20081;-72
2022/08/29 07:05:37;;;;;;;1999.90;980.38;;;18.40;99.90;;;;;;5155611;27;20043;-73
2022/08/29 07:08:03;;;;;;;1999.90;999.90;;;18.40;99.90;;;;;;5153889;27;20082;-72
2022/08/29 07:10:29;;;;;;;1999.90;999.90;;;18.50;99.90;;;;;;5137426;27;20464;-72
2022/08/29 07:12:55;;;;;;;1999.90;999.90;;;18.50;99.90;;;;;;5136904;27;20483;-72
2022/08/29 07:15:22;;;;;;;1999.90;999.90;;;18.60;99.90;;;;;;5155896;27;20095;-72
2022/08/29 07:17:48;;;;;;;1999.90;999.90;;;18.70;99.90;;;;;;5155235;27;20559;-73
2022/08/29 07:20:14;;;;;;;1999.90;999.90;;;18.80;99.90;;;;;;5155582;27;20043;-72
2022/08/29 07:22:40;;;;;;;1999.90;999.90;;;19.00;99.90;;;;;;5155295;27;20454;-72
2022/08/29 07:25:07;;;;;;;1999.90;999.90;;;19.00;99.90;;;;;;5155123;27;20141;-72
2022/08/29 07:27:34;;;;;;;1999.90;999.90;;;19.10;99.90;;;;;;5155013;27;20565;-73
2022/08/29 07:30:01;;;;;;;1999.90;999.90;;;19.10;99.90;;;;;;5155567;27;20046;-73
2022/08/29 07:32:28;;;;;;;1999.90;999.90;;;19.20;99.90;;;;;;5137366;27;20453;-72
2022/08/29 07:34:53;;;;;;;1999.90;999.90;;;19.30;99.90;;;;;;5155216;27;20042;-72
2022/08/29 07:37:19;;;;;;;1999.90;999.90;;;19.60;99.90;;;;;;5154912;27;20065;-74
2022/08/29 07:39:45;;;;;;;1999.90;999.90;;;20.30;99.90;;;;;;5154929;27;20047;-77
2022/08/29 07:42:11;;;;;;;1999.90;999.90;;;21.30;99.90;;;;;;5155120;27;20046;-73
2022/08/29 07:44:36;;;;;;;1896.85;530.75;;;22.50;99.90;;;;;;5154949;27;20464;-72
2022/08/29 07:47:02;;;;;;;1999.90;999.90;;;23.70;99.90;;;;;;5155127;27;20167;-72
2022/08/29 07:49:30;;;;;;;1999.90;999.90;;;24.90;99.90;;;;;;5136482;27;20474;-73
2022/08/29 07:51:57;;;;;;;1996.00;999.90;;;26.10;93.70;;;;;;5154285;27;20087;-73
2022/08/29 07:54:23;;;;;;;1999.90;999.90;;;27.10;23.70;;;;;;5155176;27;20058;-73
2022/08/29 07:56:50;;;;;;;1999.90;999.90;;;28.00;1.00;;;;;;5136144;27;20050;-73
2022/08/29 07:59:18;;;;;;;1999.90;999.90;;;28.80;1.00;;;;;;5136038;27;20478;-73
2022/08/29 08:01:44;;;;;;;1999.90;999.90;;;29.40;1.00;;;;;;5135112;27;20051;-73
2022/08/29 08:04:10;;;;;;;1561.32;925.22;;;29.60;1.00;;;;;;5154939;27;20129;-73
2022/08/29 08:06:39;;;;;;;1999.90;999.90;;;29.90;1.00;;;;;;5153562;27;20042;-79
2022/08/29 08:09:06;;;;;;;1999.90;999.90;;;30.60;1.00;;;;;;5135813;27;20475;-72
2022/08/29 08:11:31;;;;;;;1444.10;764.28;;;31.10;1.00;;;;;;5154325;27;20043;-72
2022/08/29 08:13:57;;;;;;;666.40;399.58;;;31.40;1.00;;;;;;5154499;27;20467;-72
2022/08/29 08:16:25;;;;;;;1999.90;999.90;;;31.60;1.00;;;;;;5154759;27;20126;-74
2022/08/29 08:18:52;;;;;;;1999.90;999.90;;;31.50;1.00;;;;;;5154029;27;20499;-72
2022/08/29 08:21:18;;;;;;;1171.20;970.65;;;30.80;1.00;;;;;;5154560;27;20042;-72
2022/08/29 08:23:44;;;;;;;1439.25;999.90;;;29.80;1.00;;;;;;5153929;27;20051;-73
2022/08/29 08:26:12;;;;;;;1053.22;906.92;;;29.00;1.00;;;;;;5153919;27;20151;-73
2022/08/29 08:28:39;;;;;;;1671.45;999.90;;;28.50;1.00;;;;;;5154259;27;20047;-80
2022/08/29 08:31:07;;;;;;;1137.70;900.60;;;27.80;1.00;;;;;;5154457;27;20089;-73
2022/08/29 08:33:37;;;;;;;930.60;840.95;;;27.20;1.00;;;;;;5154441;27;20395;-72
2022/08/29 08:36:05;;;;;;;989.17;894.30;;;26.50;1.00;;;;;;5154161;27;20169;-72
2022/08/29 08:38:31;;;;;;;997.20;896.47;;;26.00;1.00;;;;;;5154449;27;20069;-72
2022/08/29 08:41:09;;;;;;;870.22;790.55;;;25.40;1.00;;;;;;5153626;27;20042;-72
2022/08/29 08:43:47;;;;;;;956.38;867.97;;;24.90;1.00;;;;;;5154255;27;20495;-72
2022/08/29 08:46:13;;;;;;;769.83;706.63;;;24.50;1.00;;;;;;5154270;27;20035;-73
2022/08/29 08:48:39;;;;;;;884.75;800.17;;;24.10;1.00;;;;;;5153972;27;20478;-73
2022/08/29 08:51:08;;;;;;;869.50;789.17;;;23.80;1.00;;;;;;5135518;27;20479;-72
2022/08/29 08:53:40;;;;;;;1025.10;902.63;;;23.60;1.00;;;;;;5154048;27;20051;-73
2022/08/29 08:56:21;;;;;;;899.30;811.47;;;23.40;1.00;;;;;;5153947;27;20047;-73
2022/08/29 08:58:53;;;;;;;1174.00;965.00;;;23.30;1.00;;;;;;5154016;27;20122;-73
2022/08/29 09:01:25;;;;;;;983.25;883.75;;;23.30;1.00;;;;;;5135738;27;20042;-72
2022/08/29 09:04:16;;;;;;;625.28;574.13;;;23.30;1.00;;;;;;5135773;27;20050;-73
2022/08/29 09:07:19;;;;;;;1141.30;822.03;;;23.10;1.00;;;;;;5135814;27;20051;-75
2022/08/29 09:10:20;;;;;;;1137.32;822.40;;;22.80;1.00;;;;;;5116304;27;20475;-75
2022/08/29 09:13:13;;;;;;;1999.90;999.90;;;22.60;1.00;;;;;;5113605;27;20499;-72
2022/08/29 09:15:52;;;;;;;944.40;828.30;;;22.50;1.00;;;;;;5139827;27;20406;-72
2022/08/29 09:18:35;;;;;;;1999.90;999.90;;;22.20;1.00;;;;;;5158135;27;20051;-72
2022/08/29 09:21:03;;;;;;;1999.90;999.90;;;22.20;1.00;;;;;;5139662;27;20376;-72
2022/08/29 09:23:42;;;;;;;1999.90;999.90;;;22.10;2.00;;;;;;5158008;27;20051;-72
2022/08/29 09:26:08;;;;;;;1999.90;999.90;;;22.20;7.20;;;;;;5157249;27;20050;-72
2022/08/29 09:28:34;;;;;;;1999.90;999.90;;;22.30;8.50;;;;;;5157716;27;20043;-72
2022/08/29 09:31:17;;;;;;;1999.90;999.90;;;22.40;10.60;;;;;;5157622;27;20475;-72
2022/08/29 09:33:48;;;;;;;1761.95;907.28;;;22.40;11.30;;;;;;5157879;27;20130;-73
2022/08/29 09:36:31;;;;;;;1999.90;999.90;;;22.50;8.60;;;;;;5139363;27;20058;-72
2022/08/29 09:39:11;;;;;;;1531.72;591.72;;;22.60;7.90;;;;;;5157534;27;20042;-73
2022/08/29 09:41:37;;;;;;;1999.90;999.90;;;22.60;5.60;;;;;;5157349;27;20089;-73
2022/08/29 09:44:04;;;;;;;1999.90;999.90;;;22.60;7.70;;;;;;5139179;27;20053;-73
2022/08/29 09:46:29;;;;;;;1999.90;999.90;;;22.50;8.60;;;;;;5157315;27;20035;-72
2022/08/29 09:49:01;;;;;;;997.67;343.60;;;22.50;9.20;;;;;;5138250;27;20256;-72
2022/08/29 09:51:32;;;;;;;1999.90;999.90;;;22.60;7.50;;;;;;5157165;27;20054;-74
2022/08/29 09:54:21;;;;;;;1999.90;999.90;;;22.70;9.70;;;;;;5157172;27;20047;-72
2022/08/29 09:57:02;;;;;;;1999.90;999.90;;;22.70;7.20;;;;;;5156610;27;20043;-73
2022/08/29 09:59:41;;;;;;;1999.90;999.90;;;22.80;8.30;;;;;;5157536;27;20165;-74
2022/08/29 10:02:34;;;;;;;1999.90;999.90;;;22.80;1.00;;;;;;5156777;27;20130;-72
2022/08/29 10:05:05;;;;;;;1999.90;999.90;;;22.80;2.10;;;;;;5156939;27;20053;-72
2022/08/29 10:07:49;;;;;;;1999.90;999.90;;;22.80;4.00;;;;;;5138665;27;20463;-72
2022/08/29 10:10:24;;;;;;;1999.90;999.90;;;22.80;1.00;;;;;;5155016;27;20413;-72
2022/08/29 10:12:58;;;;;;;1999.90;999.90;;;22.80;1.00;;;;;;5156509;27;20042;-73
2022/08/29 10:15:33;;;;;;;1999.90;999.90;;;23.00;1.00;;;;;;5157154;27;20046;-72
2022/08/29 10:18:19;;;;;;;1999.90;999.90;;;23.30;1.00;;;;;;5156557;27;20613;-72
2022/08/29 10:21:09;;;;;;;1999.90;999.90;;;23.60;1.00;;;;;;5138561;27;20050;-72
2022/08/29 10:24:09;;;;;;;1999.90;999.90;;;23.90;1.00;;;;;;5156919;27;20121;-73
2022/08/29 10:26:38;;;;;;;1999.90;999.90;;;24.10;1.00;;;;;;5155661;27;20090;-73
2022/08/29 10:29:25;;;;;;;1999.90;999.90;;;24.20;1.00;;;;;;5137327;27;20058;-73
2022/08/29 10:32:24;;;;;;;1999.90;999.90;;;24.00;1.00;;;;;;5138203;27;20055;-73
2022/08/29 10:35:06;;;;;;;1999.90;999.90;;;23.90;1.00;;;;;;5156050;27;20437;-72
2022/08/29 10:37:58;;;;;;;1999.90;999.90;;;23.80;1.00;;;;;;5155977;27;20042;-73
2022/08/29 10:40:41;;;;;;;1999.90;999.90;;;23.70;1.00;;;;;;5150520;27;20137;-72
2022/08/29 10:43:48;;;;;;;1999.90;999.90;;;23.70;1.00;;;;;;5155976;27;20046;-72
2022/08/29 10:46:44;;;;;;;1999.90;999.90;;;23.60;1.00;;;;;;5050624;28;20548;-72
2022/08/29 10:49:51;;;;;;;1999.90;999.90;;;23.60;1.00;;;;;;5051488;28;20163;-74
2022/08/29 10:52:50;;;;;;;1999.90;999.90;;;23.60;1.00;;;;;;5087937;28;20055;-73
2022/08/29 10:55:18;;;;;;;1999.90;999.90;;;23.60;1.00;;;;;;5091960;28;20408;-73
2022/08/29 10:58:02;;;;;;;1999.90;999.90;;;23.60;1.00;;;;;;5138460;27;20056;-75
2022/08/29 11:01:08;;;;;;;1999.90;999.90;;;23.70;1.00;;;;;;5156337;27;20482;-73
2022/08/29 11:03:42;;;;;;;1999.90;999.90;;;23.70;1.00;;;;;;5156174;27;20398;-73
2022/08/29 11:06:19;;;;;;;1999.90;999.90;;;23.70;1.00;;;;;;5155804;27;20475;-73
2022/08/29 11:09:12;;;;;;;1999.90;999.90;;;23.90;1.00;;;;;;5135721;27;20126;-76
2022/08/29 11:11:42;;;;;;;1999.90;999.90;;;24.30;1.00;;;;;;5155366;27;20042;-73
2022/08/29 11:14:26;;;;;;;1999.90;999.90;;;24.90;1.00;;;;;;5155603;27;20046;-73
2022/08/29 11:16:54;;;;;;;1999.90;999.90;;;25.60;1.00;;;;;;5155819;27;20039;-73
2022/08/29 11:19:33;;;;;;;1999.90;999.90;;;26.10;1.00;;;;;;5155674;27;20048;-73
2022/08/29 11:22:01;;;;;;;;;;;26.30;1.00;;;;;;5155933;27;20050;-73
2022/08/29 11:24:30;;;;;;;1999.90;999.90;;;26.50;1.00;;;;;;5155732;27;19962;-75
2022/08/29 11:27:14;;;;;;;1999.90;999.90;;;26.50;1.00;;;;;;5154670;27;20058;-73
2022/08/29 11:30:01;;;;;;;1999.90;999.90;;;26.50;1.00;;;;;;5155542;27;20042;-73
2022/08/29 11:32:45;;;;;;;1999.90;999.90;;;26.30;1.00;;;;;;5155623;27;20035;-75
2022/08/29 11:35:23;;;;;;;1999.90;999.90;;;26.30;1.00;;;;;;5136668;27;20091;-73
2022/08/29 11:38:07;;;;;;;1999.90;999.90;;;26.30;1.00;;;;;;5137031;27;20109;-73
2022/08/29 11:40:58;;;;;;;1999.90;999.90;;;26.10;1.00;;;;;;5155046;27;20047;-73
2022/08/29 11:43:28;;;;;;;1999.90;999.90;;;25.80;1.00;;;;;;5136666;27;20433;-73
2022/08/29 11:46:02;;;;;;;1999.90;999.90;;;25.80;1.00;;;;;;5155231;27;20487;-77
2022/08/29 11:48:42;;;;;;;1999.90;999.90;;;25.90;1.00;;;;;;5155418;27;20047;-73
2022/08/29 11:51:29;;;;;;;1999.90;999.90;;;26.00;1.00;;;;;;5154731;27;20057;-73
2022/08/29 11:54:15;;;;;;;1999.90;999.90;;;26.40;1.00;;;;;;5155134;27;20043;-74
2022/08/29 11:56:41;;;;;;;1999.90;999.90;;;26.70;1.00;;;;;;5154573;27;20049;-74
2022/08/29 11:59:07;;;;;;;1999.90;999.90;;;26.90;1.00;;;;;;5136547;27;20121;-73
2022/08/29 12:01:36;;;;;;;1999.90;999.90;;;27.00;1.00;;;;;;5154798;27;20505;-73
2022/08/29 12:04:07;;;;;;;1999.90;999.90;;;26.90;1.00;;;;;;5154300;27;20502;-73
2022/08/29 12:06:39;;;;;;;1999.90;999.90;;;27.00;1.00;;;;;;5154765;27;20034;-75
2022/08/29 12:09:19;;;;;;;1999.90;999.90;;;27.00;1.00;;;;;;5153203;27;20091;-73
2022/08/29 12:12:03;;;;;;;1999.90;999.90;;;27.10;1.00;;;;;;5154108;27;20049;-73
2022/08/29 12:14:36;;;;;;;1999.90;999.90;;;27.30;1.00;;;;;;5154813;27;20144;-73
2022/08/29 12:17:24;;;;;;;1999.90;999.90;;;27.30;1.00;;;;;;5154372;27;20045;-73
2022/08/29 12:19:55;;;;;;;1999.90;999.90;;;27.40;1.00;;;;;;5134613;27;20050;-73
2022/08/29 12:22:45;;;;;;;1999.90;999.90;;;27.50;1.00;;;;;;5154075;27;20046;-73